sensor_id;sensor_type;location;lat;lon;timestamp;pressure;altitude;pressure_sealevel;temperature;humidity
80945;BME280;70400;50.934;11.590;2023-08-01T00:00:34;98753.09;;;18.08;73.60
80945;BME280;70400;50.934;11.590;2023-08-01T00:01:25;98762.22;;;18.00;73.87
80945;BME280;70400;50.934;11.590;2023-08-01T00:02:16;98748.66;;;18.02;74.12
80945;BME280;70400;50.934;11.590;2023-08-01T00:03:07;98741.47;;;18.03;73.72
80945;BME280;70400;50.934;11.590;2023-08-01T00:03:57;98739.03;;;18.01;73.76
80945;BME280;70400;50.934;11.590;2023-08-01T00:04:48;98747.47;;;17.98;73.12
80945;BME280;70400;50.934;11.590;2023-08-01T00:05:40;98746.22;;;18.00;73.75
80945;BME280;70400;50.934;11.590;2023-08-01T00:06:35;98755.78;;;17.90;74.41
80945;BME280;70400;50.934;11.590;2023-08-01T00:07:27;98770.06;;;17.95;73.58
80945;BME280;70400;50.934;11.590;2023-08-01T00:08:18;98762.22;;;18.00;73.19
80945;BME280;70400;50.934;11.590;2023-08-01T00:09:09;98770.97;;;17.89;73.71
80945;BME280;70400;50.934;11.590;2023-08-01T00:10:00;98777.91;;;17.90;74.01
80945;BME280;70400;50.934;11.590;2023-08-01T00:10:51;98779.56;;;17.91;74.21
80945;BME280;70400;50.934;11.590;2023-08-01T00:11:42;98779.34;;;17.93;74.09
80945;BME280;70400;50.934;11.590;2023-08-01T00:12:32;98782.16;;;17.98;73.90
80945;BME280;70400;50.934;11.590;2023-08-01T00:13:23;98777.63;;;17.98;74.31
80945;BME280;70400;50.934;11.590;2023-08-01T00:14:14;98781.19;;;17.92;74.08
80945;BME280;70400;50.934;11.590;2023-08-01T00:15:05;98777.06;;;17.96;73.58
80945;BME280;70400;50.934;11.590;2023-08-01T00:15:56;98778.03;;;18.02;73.69
80945;BME280;70400;50.934;11.590;2023-08-01T00:16:51;98784.22;;;17.96;73.81
80945;BME280;70400;50.934;11.590;2023-08-01T00:17:42;98775.81;;;17.99;73.59
80945;BME280;70400;50.934;11.590;2023-08-01T00:18:32;98779.28;;;17.99;73.44
80945;BME280;70400;50.934;11.590;2023-08-01T00:19:23;98774.69;;;18.07;73.36
80945;BME280;70400;50.934;11.590;2023-08-01T00:20:14;98770.47;;;17.99;74.41
80945;BME280;70400;50.934;11.590;2023-08-01T00:21:05;98777.88;;;17.97;73.82
80945;BME280;70400;50.934;11.590;2023-08-01T00:21:59;98769.19;;;18.02;73.51
80945;BME280;70400;50.934;11.590;2023-08-01T00:22:50;98775.72;;;18.06;73.35
80945;BME280;70400;50.934;11.590;2023-08-01T00:23:41;98768.66;;;17.93;74.42
80945;BME280;70400;50.934;11.590;2023-08-01T00:24:32;98769.47;;;17.93;73.49
80945;BME280;70400;50.934;11.590;2023-08-01T00:25:22;98771.13;;;17.94;74.39
80945;BME280;70400;50.934;11.590;2023-08-01T00:26:13;98761.47;;;17.93;74.30
80945;BME280;70400;50.934;11.590;2023-08-01T00:27:04;98756.53;;;17.97;74.88
80945;BME280;70400;50.934;11.590;2023-08-01T00:27:55;98761.25;;;17.95;74.29
80945;BME280;70400;50.934;11.590;2023-08-01T00:28:46;98766.28;;;17.85;74.41
80945;BME280;70400;50.934;11.590;2023-08-01T00:29:37;98760.50;;;17.88;74.79
80945;BME280;70400;50.934;11.590;2023-08-01T00:30:28;98758.72;;;17.82;74.67
80945;BME280;70400;50.934;11.590;2023-08-01T00:31:19;98766.88;;;17.87;74.21
80945;BME280;70400;50.934;11.590;2023-08-01T00:32:09;98759.91;;;17.86;74.47
80945;BME280;70400;50.934;11.590;2023-08-01T00:33:00;98761.31;;;17.88;74.57
80945;BME280;70400;50.934;11.590;2023-08-01T00:33:51;98762.38;;;17.87;73.87
80945;BME280;70400;50.934;11.590;2023-08-01T00:34:42;98757.03;;;17.87;74.37
80945;BME280;70400;50.934;11.590;2023-08-01T00:35:33;98754.22;;;17.82;75.05
80945;BME280;70400;50.934;11.590;2023-08-01T00:36:23;98752.91;;;17.91;74.50
80945;BME280;70400;50.934;11.590;2023-08-01T00:37:14;98748.38;;;17.92;74.42
80945;BME280;70400;50.934;11.590;2023-08-01T00:38:05;98744.44;;;17.94;74.57
80945;BME280;70400;50.934;11.590;2023-08-01T00:38:57;98742.66;;;17.88;74.65
80945;BME280;70400;50.934;11.590;2023-08-01T00:39:48;98740.44;;;17.85;74.78
80945;BME280;70400;50.934;11.590;2023-08-01T00:40:39;98741.03;;;17.87;74.16
80945;BME280;70400;50.934;11.590;2023-08-01T00:41:30;98733.94;;;17.99;73.81
80945;BME280;70400;50.934;11.590;2023-08-01T00:42:21;98730.81;;;18.03;73.21
80945;BME280;70400;50.934;11.590;2023-08-01T00:43:12;98733.63;;;18.08;73.67
80945;BME280;70400;50.934;11.590;2023-08-01T00:44:02;98726.56;;;18.13;73.48
80945;BME280;70400;50.934;11.590;2023-08-01T00:44:54;98720.44;;;18.13;72.75
80945;BME280;70400;50.934;11.590;2023-08-01T00:45:45;98722.88;;;18.14;72.62
80945;BME280;70400;50.934;11.590;2023-08-01T00:46:36;98719.81;;;18.11;72.72
80945;BME280;70400;50.934;11.590;2023-08-01T00:47:27;98708.56;;;18.09;73.18
80945;BME280;70400;50.934;11.590;2023-08-01T00:48:18;98713.91;;;18.09;73.25
80945;BME280;70400;50.934;11.590;2023-08-01T00:49:10;98714.63;;;18.16;73.39
80945;BME280;70400;50.934;11.590;2023-08-01T00:50:02;98708.94;;;18.12;73.97
80945;BME280;70400;50.934;11.590;2023-08-01T00:50:53;98708.56;;;18.09;73.03
80945;BME280;70400;50.934;11.590;2023-08-01T00:51:44;98706.94;;;18.08;73.35
80945;BME280;70400;50.934;11.590;2023-08-01T00:52:35;98701.41;;;18.09;73.22
80945;BME280;70400;50.934;11.590;2023-08-01T00:53:25;98700.56;;;18.09;73.49
80945;BME280;70400;50.934;11.590;2023-08-01T00:54:16;98703.81;;;18.11;73.29
80945;BME280;70400;50.934;11.590;2023-08-01T00:55:08;98699.91;;;18.13;72.60
80945;BME280;70400;50.934;11.590;2023-08-01T00:55:59;98698.13;;;18.07;73.38
80945;BME280;70400;50.934;11.590;2023-08-01T00:56:50;98700.41;;;18.04;73.34
80945;BME280;70400;50.934;11.590;2023-08-01T00:57:41;98700.50;;;18.15;72.32
80945;BME280;70400;50.934;11.590;2023-08-01T00:58:32;98690.47;;;18.11;73.03
80945;BME280;70400;50.934;11.590;2023-08-01T00:59:23;98691.88;;;18.13;72.65
80945;BME280;70400;50.934;11.590;2023-08-01T01:00:14;98686.34;;;18.15;72.54
80945;BME280;70400;50.934;11.590;2023-08-01T01:01:05;98684.84;;;18.19;72.33
80945;BME280;70400;50.934;11.590;2023-08-01T01:01:59;98687.50;;;18.19;73.02
80945;BME280;70400;50.934;11.590;2023-08-01T01:02:50;98687.16;;;18.15;72.99
80945;BME280;70400;50.934;11.590;2023-08-01T01:03:43;98684.13;;;18.12;72.51
80945;BME280;70400;50.934;11.590;2023-08-01T01:04:34;98682.63;;;18.16;72.90
80945;BME280;70400;50.934;11.590;2023-08-01T01:05:27;98692.84;;;18.19;72.75
80945;BME280;70400;50.934;11.590;2023-08-01T01:06:37;98676.47;;;18.15;73.13
80945;BME280;70400;50.934;11.590;2023-08-01T01:07:30;98677.09;;;17.99;73.93
80945;BME280;70400;50.934;11.590;2023-08-01T01:08:21;98675.00;;;18.01;73.66
80945;BME280;70400;50.934;11.590;2023-08-01T01:09:17;98672.56;;;17.99;73.81
80945;BME280;70400;50.934;11.590;2023-08-01T01:10:08;98665.53;;;18.05;73.39
80945;BME280;70400;50.934;11.590;2023-08-01T01:10:58;98665.31;;;18.07;73.30
80945;BME280;70400;50.934;11.590;2023-08-01T01:11:49;98664.91;;;18.03;73.43
80945;BME280;70400;50.934;11.590;2023-08-01T01:12:40;98663.94;;;18.16;72.35
80945;BME280;70400;50.934;11.590;2023-08-01T01:13:31;98663.81;;;18.11;72.79
80945;BME280;70400;50.934;11.590;2023-08-01T01:14:22;98662.19;;;18.10;73.04
80945;BME280;70400;50.934;11.590;2023-08-01T01:15:13;98662.63;;;18.07;73.20
80945;BME280;70400;50.934;11.590;2023-08-01T01:16:04;98657.31;;;18.07;72.79
80945;BME280;70400;50.934;11.590;2023-08-01T01:16:55;98655.34;;;18.14;72.85
80945;BME280;70400;50.934;11.590;2023-08-01T01:17:46;98652.59;;;18.20;72.18
80945;BME280;70400;50.934;11.590;2023-08-01T01:18:37;98649.13;;;18.20;72.65
80945;BME280;70400;50.934;11.590;2023-08-01T01:19:28;98646.34;;;18.27;71.95
80945;BME280;70400;50.934;11.590;2023-08-01T01:20:23;98648.81;;;18.28;71.93
80945;BME280;70400;50.934;11.590;2023-08-01T01:21:14;98648.44;;;18.25;72.01
80945;BME280;70400;50.934;11.590;2023-08-01T01:22:06;98645.84;;;18.18;72.28
80945;BME280;70400;50.934;11.590;2023-08-01T01:22:58;98642.28;;;18.24;72.33
80945;BME280;70400;50.934;11.590;2023-08-01T01:23:49;98649.78;;;18.15;72.77
80945;BME280;70400;50.934;11.590;2023-08-01T01:24:42;98645.25;;;18.16;72.69
80945;BME280;70400;50.934;11.590;2023-08-01T01:25:34;98641.72;;;18.22;72.56
80945;BME280;70400;50.934;11.590;2023-08-01T01:26:27;98634.72;;;18.21;72.46
80945;BME280;70400;50.934;11.590;2023-08-01T01:27:20;98636.25;;;18.17;73.14
80945;BME280;70400;50.934;11.590;2023-08-01T01:28:12;98638.06;;;18.16;72.69
80945;BME280;70400;50.934;11.590;2023-08-01T01:29:04;98631.78;;;18.11;73.13
80945;BME280;70400;50.934;11.590;2023-08-01T01:29:57;98645.22;;;18.04;73.26
80945;BME280;70400;50.934;11.590;2023-08-01T01:30:48;98635.56;;;18.03;73.17
80945;BME280;70400;50.934;11.590;2023-08-01T01:31:40;98636.53;;;18.09;72.46
80945;BME280;70400;50.934;11.590;2023-08-01T01:32:31;98636.31;;;18.10;72.72
80945;BME280;70400;50.934;11.590;2023-08-01T01:33:24;98624.97;;;18.15;72.65
80945;BME280;70400;50.934;11.590;2023-08-01T01:34:15;98622.66;;;18.18;72.55
80945;BME280;70400;50.934;11.590;2023-08-01T01:35:06;98615.09;;;18.15;72.84
80945;BME280;70400;50.934;11.590;2023-08-01T01:36:00;98624.72;;;18.16;72.20
80945;BME280;70400;50.934;11.590;2023-08-01T01:36:51;98611.09;;;18.25;71.73
80945;BME280;70400;50.934;11.590;2023-08-01T01:37:41;98621.53;;;18.26;71.88
80945;BME280;70400;50.934;11.590;2023-08-01T01:38:32;98613.63;;;18.19;72.04
80945;BME280;70400;50.934;11.590;2023-08-01T01:39:23;98612.50;;;18.27;71.67
80945;BME280;70400;50.934;11.590;2023-08-01T01:40:14;98610.84;;;18.26;71.71
80945;BME280;70400;50.934;11.590;2023-08-01T01:41:05;98603.56;;;18.33;71.18
80945;BME280;70400;50.934;11.590;2023-08-01T01:41:56;98595.44;;;18.28;71.23
80945;BME280;70400;50.934;11.590;2023-08-01T01:42:47;98596.75;;;18.37;71.04
80945;BME280;70400;50.934;11.590;2023-08-01T01:43:39;98594.88;;;18.38;71.27
80945;BME280;70400;50.934;11.590;2023-08-01T01:44:31;98597.88;;;18.30;71.40
80945;BME280;70400;50.934;11.590;2023-08-01T01:45:22;98601.81;;;18.27;71.47
80945;BME280;70400;50.934;11.590;2023-08-01T01:46:13;98588.34;;;18.34;71.05
80945;BME280;70400;50.934;11.590;2023-08-01T01:47:04;98596.63;;;18.32;71.58
80945;BME280;70400;50.934;11.590;2023-08-01T01:47:55;98584.75;;;18.28;71.82
80945;BME280;70400;50.934;11.590;2023-08-01T01:48:46;98586.88;;;18.38;70.97
80945;BME280;70400;50.934;11.590;2023-08-01T01:49:37;98590.81;;;18.35;70.77
80945;BME280;70400;50.934;11.590;2023-08-01T01:50:28;98582.22;;;18.33;71.28
80945;BME280;70400;50.934;11.590;2023-08-01T01:51:20;98587.19;;;18.30;71.47
80945;BME280;70400;50.934;11.590;2023-08-01T01:52:11;98578.94;;;18.31;71.30
80945;BME280;70400;50.934;11.590;2023-08-01T01:53:02;98580.22;;;18.29;71.26
80945;BME280;70400;50.934;11.590;2023-08-01T01:53:54;98574.59;;;18.37;70.99
80945;BME280;70400;50.934;11.590;2023-08-01T01:54:46;98574.28;;;18.27;71.25
80945;BME280;70400;50.934;11.590;2023-08-01T01:55:37;98571.50;;;18.21;72.23
80945;BME280;70400;50.934;11.590;2023-08-01T01:56:27;98566.75;;;18.23;71.45
80945;BME280;70400;50.934;11.590;2023-08-01T01:57:18;98565.13;;;18.22;71.63
80945;BME280;70400;50.934;11.590;2023-08-01T01:58:09;98561.91;;;18.32;70.77
80945;BME280;70400;50.934;11.590;2023-08-01T01:59:00;98562.94;;;18.31;71.13
80945;BME280;70400;50.934;11.590;2023-08-01T01:59:51;98559.13;;;18.39;71.00
80945;BME280;70400;50.934;11.590;2023-08-01T02:00:42;98562.63;;;18.39;70.67
80945;BME280;70400;50.934;11.590;2023-08-01T02:01:32;98562.97;;;18.43;70.90
80945;BME280;70400;50.934;11.590;2023-08-01T02:02:23;98560.53;;;18.41;70.99
80945;BME280;70400;50.934;11.590;2023-08-01T02:03:16;98556.69;;;18.37;70.97
80945;BME280;70400;50.934;11.590;2023-08-01T02:04:07;98554.25;;;18.36;70.73
80945;BME280;70400;50.934;11.590;2023-08-01T02:04:57;98564.13;;;18.35;71.13
80945;BME280;70400;50.934;11.590;2023-08-01T02:05:48;98554.25;;;18.36;71.25
80945;BME280;70400;50.934;11.590;2023-08-01T02:06:41;98548.09;;;18.35;70.98
80945;BME280;70400;50.934;11.590;2023-08-01T02:07:33;98545.56;;;18.40;70.85
80945;BME280;70400;50.934;11.590;2023-08-01T02:08:24;98542.78;;;18.35;71.33
80945;BME280;70400;50.934;11.590;2023-08-01T02:09:15;98542.69;;;18.42;71.13
80945;BME280;70400;50.934;11.590;2023-08-01T02:10:06;98551.84;;;18.46;70.77
80945;BME280;70400;50.934;11.590;2023-08-01T02:10:57;98551.72;;;18.41;70.73
80945;BME280;70400;50.934;11.590;2023-08-01T02:11:48;98558.91;;;18.40;71.06
80945;BME280;70400;50.934;11.590;2023-08-01T02:12:42;98548.69;;;18.37;70.98
80945;BME280;70400;50.934;11.590;2023-08-01T02:13:33;98547.63;;;18.38;71.03
80945;BME280;70400;50.934;11.590;2023-08-01T02:14:25;98545.56;;;18.40;70.61
80945;BME280;70400;50.934;11.590;2023-08-01T02:15:16;98542.91;;;18.40;71.12
80945;BME280;70400;50.934;11.590;2023-08-01T02:16:09;98548.00;;;18.42;70.44
80945;BME280;70400;50.934;11.590;2023-08-01T02:17:02;98540.44;;;18.39;70.64
80945;BME280;70400;50.934;11.590;2023-08-01T02:17:53;98540.13;;;18.47;70.14
80945;BME280;70400;50.934;11.590;2023-08-01T02:18:43;98532.81;;;18.42;70.75
80945;BME280;70400;50.934;11.590;2023-08-01T02:19:34;98537.69;;;18.46;70.43
80945;BME280;70400;50.934;11.590;2023-08-01T02:20:25;98533.41;;;18.44;70.30
80945;BME280;70400;50.934;11.590;2023-08-01T02:21:17;98530.94;;;18.43;70.83
80945;BME280;70400;50.934;11.590;2023-08-01T02:22:08;98527.69;;;18.41;70.65
80945;BME280;70400;50.934;11.590;2023-08-01T02:22:59;98525.25;;;18.39;70.80
80945;BME280;70400;50.934;11.590;2023-08-01T02:23:50;98531.16;;;18.41;70.70
80945;BME280;70400;50.934;11.590;2023-08-01T02:24:41;98526.88;;;18.40;70.61
80945;BME280;70400;50.934;11.590;2023-08-01T02:25:32;98522.94;;;18.43;70.64
80945;BME280;70400;50.934;11.590;2023-08-01T02:26:23;98521.88;;;18.44;70.76
80945;BME280;70400;50.934;11.590;2023-08-01T02:27:15;98524.00;;;18.42;70.65
80945;BME280;70400;50.934;11.590;2023-08-01T02:28:06;98517.47;;;18.38;70.98
80945;BME280;70400;50.934;11.590;2023-08-01T02:28:58;98523.16;;;18.30;71.78
80945;BME280;70400;50.934;11.590;2023-08-01T02:29:49;98511.09;;;18.27;71.51
80945;BME280;70400;50.934;11.590;2023-08-01T02:30:41;98516.63;;;18.26;71.81
80945;BME280;70400;50.934;11.590;2023-08-01T02:31:32;98514.44;;;18.22;71.71
80945;BME280;70400;50.934;11.590;2023-08-01T02:32:23;98516.63;;;18.26;71.58
80945;BME280;70400;50.934;11.590;2023-08-01T02:33:14;98506.91;;;18.31;71.60
80945;BME280;70400;50.934;11.590;2023-08-01T02:34:05;98506.09;;;18.31;71.66
80945;BME280;70400;50.934;11.590;2023-08-01T02:34:56;98505.75;;;18.27;72.10
80945;BME280;70400;50.934;11.590;2023-08-01T02:35:47;98495.06;;;18.27;71.61
80945;BME280;70400;50.934;11.590;2023-08-01T02:36:38;98504.09;;;18.26;72.13
80945;BME280;70400;50.934;11.590;2023-08-01T02:37:31;98499.00;;;18.25;72.50
80945;BME280;70400;50.934;11.590;2023-08-01T02:38:22;98504.44;;;18.18;72.67
80945;BME280;70400;50.934;11.590;2023-08-01T02:39:12;98499.78;;;18.13;72.81
80945;BME280;70400;50.934;11.590;2023-08-01T02:40:04;98498.75;;;18.14;72.90
80945;BME280;70400;50.934;11.590;2023-08-01T02:40:58;98500.47;;;18.09;73.69
80945;BME280;70400;50.934;11.590;2023-08-01T02:41:49;98498.25;;;18.06;73.26
80945;BME280;70400;50.934;11.590;2023-08-01T02:42:40;98504.78;;;18.10;73.17
80945;BME280;70400;50.934;11.590;2023-08-01T02:43:31;98499.31;;;18.05;73.71
80945;BME280;70400;50.934;11.590;2023-08-01T02:44:22;98504.84;;;18.03;74.31
80945;BME280;70400;50.934;11.590;2023-08-01T02:45:12;98497.91;;;18.02;73.92
80945;BME280;70400;50.934;11.590;2023-08-01T02:46:03;98499.78;;;18.02;74.24
80945;BME280;70400;50.934;11.590;2023-08-01T02:46:56;98498.59;;;17.97;73.78
80945;BME280;70400;50.934;11.590;2023-08-01T02:47:49;98508.94;;;18.06;73.82
80945;BME280;70400;50.934;11.590;2023-08-01T02:48:40;98498.72;;;18.03;74.37
80945;BME280;70400;50.934;11.590;2023-08-01T02:49:31;98507.19;;;17.99;74.22
80945;BME280;70400;50.934;11.590;2023-08-01T02:50:22;98504.50;;;17.99;74.38
80945;BME280;70400;50.934;11.590;2023-08-01T02:51:13;98506.91;;;17.89;74.63
80945;BME280;70400;50.934;11.590;2023-08-01T02:52:04;98501.72;;;17.94;75.64
80945;BME280;70400;50.934;11.590;2023-08-01T02:52:55;98495.44;;;17.89;75.26
80945;BME280;70400;50.934;11.590;2023-08-01T02:53:46;98497.13;;;17.83;75.63
80945;BME280;70400;50.934;11.590;2023-08-01T02:54:37;98487.16;;;17.78;75.78
80945;BME280;70400;50.934;11.590;2023-08-01T02:55:28;98495.38;;;17.77;75.40
80945;BME280;70400;50.934;11.590;2023-08-01T02:56:18;98492.09;;;17.75;76.17
80945;BME280;70400;50.934;11.590;2023-08-01T02:57:09;98488.16;;;17.77;75.33
80945;BME280;70400;50.934;11.590;2023-08-01T02:58:00;98487.81;;;17.74;76.19
80945;BME280;70400;50.934;11.590;2023-08-01T02:58:51;98481.91;;;17.72;76.48
80945;BME280;70400;50.934;11.590;2023-08-01T02:59:42;98478.56;;;17.76;75.57
80945;BME280;70400;50.934;11.590;2023-08-01T03:00:33;98475.59;;;17.85;75.34
80945;BME280;70400;50.934;11.590;2023-08-01T03:01:24;98477.28;;;17.79;76.22
80945;BME280;70400;50.934;11.590;2023-08-01T03:02:15;98471.09;;;17.67;77.11
80945;BME280;70400;50.934;11.590;2023-08-01T03:03:06;98471.78;;;17.62;76.34
80945;BME280;70400;50.934;11.590;2023-08-01T03:03:57;98474.91;;;17.59;77.24
80945;BME280;70400;50.934;11.590;2023-08-01T03:04:48;98471.78;;;17.62;76.77
80945;BME280;70400;50.934;11.590;2023-08-01T03:05:39;98472.72;;;17.68;76.15
80945;BME280;70400;50.934;11.590;2023-08-01T03:06:33;98475.75;;;17.71;75.86
80945;BME280;70400;50.934;11.590;2023-08-01T03:07:24;98469.97;;;17.74;76.20
80945;BME280;70400;50.934;11.590;2023-08-01T03:08:15;98475.84;;;17.65;77.00
80945;BME280;70400;50.934;11.590;2023-08-01T03:09:06;98482.09;;;17.58;77.35
80945;BME280;70400;50.934;11.590;2023-08-01T03:09:59;98486.97;;;17.62;76.56
80945;BME280;70400;50.934;11.590;2023-08-01T03:10:51;98481.41;;;17.63;76.92
80945;BME280;70400;50.934;11.590;2023-08-01T03:11:41;98484.88;;;17.64;77.06
80945;BME280;70400;50.934;11.590;2023-08-01T03:12:32;98484.50;;;17.60;77.31
80945;BME280;70400;50.934;11.590;2023-08-01T03:13:24;98485.03;;;17.69;76.29
80945;BME280;70400;50.934;11.590;2023-08-01T03:14:16;98482.03;;;17.77;76.71
80945;BME280;70400;50.934;11.590;2023-08-01T03:15:07;98483.09;;;17.76;75.88
80945;BME280;70400;50.934;11.590;2023-08-01T03:15:59;98482.50;;;17.74;76.99
80945;BME280;70400;50.934;11.590;2023-08-01T03:16:52;98479.56;;;17.64;77.25
80945;BME280;70400;50.934;11.590;2023-08-01T03:17:42;98484.06;;;17.63;77.24
80945;BME280;70400;50.934;11.590;2023-08-01T03:18:33;98486.81;;;17.56;77.67
80945;BME280;70400;50.934;11.590;2023-08-01T03:19:24;98478.16;;;17.61;77.13
80945;BME280;70400;50.934;11.590;2023-08-01T03:20:15;98486.75;;;17.63;77.60
80945;BME280;70400;50.934;11.590;2023-08-01T03:21:07;98477.78;;;17.57;78.13
80945;BME280;70400;50.934;11.590;2023-08-01T03:21:58;98481.50;;;17.56;77.68
80945;BME280;70400;50.934;11.590;2023-08-01T03:22:49;98478.69;;;17.51;78.34
80945;BME280;70400;50.934;11.590;2023-08-01T03:23:39;98479.00;;;17.43;78.75
80945;BME280;70400;50.934;11.590;2023-08-01T03:24:31;98480.75;;;17.49;77.84
80945;BME280;70400;50.934;11.590;2023-08-01T03:25:23;98480.31;;;17.52;78.17
80945;BME280;70400;50.934;11.590;2023-08-01T03:26:14;98477.94;;;17.44;78.98
80945;BME280;70400;50.934;11.590;2023-08-01T03:27:06;98475.88;;;17.46;78.55
80945;BME280;70400;50.934;11.590;2023-08-01T03:27:58;98475.75;;;17.41;78.90
80945;BME280;70400;50.934;11.590;2023-08-01T03:28:51;98471.34;;;17.47;79.09
80945;BME280;70400;50.934;11.590;2023-08-01T03:29:42;98476.34;;;17.43;79.27
80945;BME280;70400;50.934;11.590;2023-08-01T03:30:33;98466.09;;;17.40;79.59
80945;BME280;70400;50.934;11.590;2023-08-01T03:31:24;98466.69;;;17.42;79.28
80945;BME280;70400;50.934;11.590;2023-08-01T03:32:16;98468.03;;;17.51;78.60
80945;BME280;70400;50.934;11.590;2023-08-01T03:33:07;98471.94;;;17.49;78.97
80945;BME280;70400;50.934;11.590;2023-08-01T03:33:58;98468.03;;;17.51;78.55
80945;BME280;70400;50.934;11.590;2023-08-01T03:34:49;98461.78;;;17.57;77.65
80945;BME280;70400;50.934;11.590;2023-08-01T03:35:40;98459.84;;;17.65;78.12
80945;BME280;70400;50.934;11.590;2023-08-01T03:36:30;98460.31;;;17.62;78.15
80945;BME280;70400;50.934;11.590;2023-08-01T03:37:21;98453.91;;;17.63;77.79
80945;BME280;70400;50.934;11.590;2023-08-01T03:38:12;98456.69;;;17.56;78.38
80945;BME280;70400;50.934;11.590;2023-08-01T03:39:03;98453.28;;;17.49;79.15
80945;BME280;70400;50.934;11.590;2023-08-01T03:39:55;98456.03;;;17.61;78.23
80945;BME280;70400;50.934;11.590;2023-08-01T03:40:46;98453.09;;;17.62;78.02
80945;BME280;70400;50.934;11.590;2023-08-01T03:41:37;98460.38;;;17.55;78.81
80945;BME280;70400;50.934;11.590;2023-08-01T03:42:28;98453.78;;;17.57;79.09
80945;BME280;70400;50.934;11.590;2023-08-01T03:43:20;98449.19;;;17.65;78.22
80945;BME280;70400;50.934;11.590;2023-08-01T03:44:14;98447.59;;;17.45;79.66
80945;BME280;70400;50.934;11.590;2023-08-01T03:45:07;98447.56;;;17.33;79.72
80945;BME280;70400;50.934;11.590;2023-08-01T03:45:58;98443.97;;;17.40;79.24
80945;BME280;70400;50.934;11.590;2023-08-01T03:46:49;98450.34;;;17.39;79.79
80945;BME280;70400;50.934;11.590;2023-08-01T03:47:40;98451.16;;;17.39;79.87
80945;BME280;70400;50.934;11.590;2023-08-01T03:48:31;98448.03;;;17.42;79.53
80945;BME280;70400;50.934;11.590;2023-08-01T03:49:22;98450.50;;;17.44;79.26
80945;BME280;70400;50.934;11.590;2023-08-01T03:50:12;98449.69;;;17.43;79.21
80945;BME280;70400;50.934;11.590;2023-08-01T03:51:04;98446.44;;;17.41;79.77
80945;BME280;70400;50.934;11.590;2023-08-01T03:51:55;98445.25;;;17.37;79.85
80945;BME280;70400;50.934;11.590;2023-08-01T03:52:49;98448.34;;;17.34;79.79
80945;BME280;70400;50.934;11.590;2023-08-01T03:53:40;98445.84;;;17.39;79.62
80945;BME280;70400;50.934;11.590;2023-08-01T03:54:32;98447.03;;;17.43;79.75
80945;BME280;70400;50.934;11.590;2023-08-01T03:55:23;98447.09;;;17.36;79.74
80945;BME280;70400;50.934;11.590;2023-08-01T03:56:14;98442.50;;;17.44;78.77
80945;BME280;70400;50.934;11.590;2023-08-01T03:57:05;98440.78;;;17.49;78.68
80945;BME280;70400;50.934;11.590;2023-08-01T03:57:57;98445.84;;;17.39;80.32
80945;BME280;70400;50.934;11.590;2023-08-01T03:58:48;98440.97;;;17.36;80.31
80945;BME280;70400;50.934;11.590;2023-08-01T03:59:39;98441.44;;;17.45;79.87
80945;BME280;70400;50.934;11.590;2023-08-01T04:00:30;98439.97;;;17.49;78.79
80945;BME280;70400;50.934;11.590;2023-08-01T04:01:24;98437.16;;;17.44;79.40
80945;BME280;70400;50.934;11.590;2023-08-01T04:02:15;98446.81;;;17.26;80.92
80945;BME280;70400;50.934;11.590;2023-08-01T04:03:06;98445.63;;;17.22;81.27
80945;BME280;70400;50.934;11.590;2023-08-01T04:03:58;98442.69;;;17.30;80.86
80945;BME280;70400;50.934;11.590;2023-08-01T04:04:49;98440.84;;;17.43;79.78
80945;BME280;70400;50.934;11.590;2023-08-01T04:05:40;98440.19;;;17.47;79.69
80945;BME280;70400;50.934;11.590;2023-08-01T04:06:31;98437.50;;;17.47;79.36
80945;BME280;70400;50.934;11.590;2023-08-01T04:07:22;98430.56;;;17.46;79.53
80945;BME280;70400;50.934;11.590;2023-08-01T04:08:13;98438.91;;;17.50;79.36
80945;BME280;70400;50.934;11.590;2023-08-01T04:09:04;98430.72;;;17.51;79.48
80945;BME280;70400;50.934;11.590;2023-08-01T04:09:55;98436.50;;;17.48;79.57
80945;BME280;70400;50.934;11.590;2023-08-01T04:10:45;98430.91;;;17.50;79.70
80945;BME280;70400;50.934;11.590;2023-08-01T04:11:36;98434.63;;;17.49;79.75
80945;BME280;70400;50.934;11.590;2023-08-01T04:12:27;98428.38;;;17.43;80.66
80945;BME280;70400;50.934;11.590;2023-08-01T04:13:18;98433.31;;;17.40;80.56
80945;BME280;70400;50.934;11.590;2023-08-01T04:14:09;98422.31;;;17.36;80.65
80945;BME280;70400;50.934;11.590;2023-08-01T04:15:00;98427.78;;;17.41;80.42
80945;BME280;70400;50.934;11.590;2023-08-01T04:15:51;98425.69;;;17.43;80.54
80945;BME280;70400;50.934;11.590;2023-08-01T04:16:42;98423.47;;;17.40;80.62
80945;BME280;70400;50.934;11.590;2023-08-01T04:17:33;98425.09;;;17.41;80.70
80945;BME280;70400;50.934;11.590;2023-08-01T04:18:24;98422.91;;;17.38;80.97
80945;BME280;70400;50.934;11.590;2023-08-01T04:19:14;98423.38;;;17.47;80.76
80945;BME280;70400;50.934;11.590;2023-08-01T04:20:08;98417.59;;;17.50;80.17
80945;BME280;70400;50.934;11.590;2023-08-01T04:20:59;98420.25;;;17.50;80.02
80945;BME280;70400;50.934;11.590;2023-08-01T04:21:50;98414.66;;;17.40;82.13
80945;BME280;70400;50.934;11.590;2023-08-01T04:22:41;98420.25;;;17.38;81.27
80945;BME280;70400;50.934;11.590;2023-08-01T04:23:31;98416.66;;;17.44;81.05
80945;BME280;70400;50.934;11.590;2023-08-01T04:24:22;98418.38;;;17.39;81.12
80945;BME280;70400;50.934;11.590;2023-08-01T04:25:16;98423.31;;;17.35;81.21
80945;BME280;70400;50.934;11.590;2023-08-01T04:26:07;98413.72;;;17.34;81.74
80945;BME280;70400;50.934;11.590;2023-08-01T04:26:59;98411.25;;;17.32;81.42
80945;BME280;70400;50.934;11.590;2023-08-01T04:27:51;98411.72;;;17.29;82.01
80945;BME280;70400;50.934;11.590;2023-08-01T04:28:41;98408.13;;;17.24;81.86